createdAt,value
2023-04-06T00:00:43.183Z,94.27
2023-04-06T00:01:43.268Z,94.17
2023-04-06T00:02:43.951Z,94.17
2023-04-06T00:03:43.215Z,93.74
2023-04-06T00:04:43.140Z,93.74
2023-04-06T00:05:43.163Z,93.74
2023-04-06T00:06:43.191Z,94.06
2023-04-06T00:07:43.116Z,93.85
2023-04-06T00:08:43.135Z,94.06
2023-04-06T00:09:43.103Z,93.95
2023-04-06T00:10:43.136Z,94.37
2023-04-06T00:11:43.185Z,94.58
2023-04-06T00:12:43.079Z,94.84
2023-04-06T00:13:43.085Z,95.10
2023-04-06T00:14:43.059Z,95.00
2023-04-06T00:15:43.062Z,94.79
2023-04-06T00:16:43.104Z,94.69
2023-04-06T00:17:43.145Z,94.79
2023-04-06T00:18:43.024Z,95.00
2023-04-06T00:19:44.043Z,94.73
2023-04-06T00:20:43.048Z,94.84
2023-04-06T00:21:43.062Z,94.84
2023-04-06T00:22:43.030Z,95.04
2023-04-06T00:23:43.033Z,95.15
2023-04-06T00:24:43.209Z,94.84
2023-04-06T00:25:42.991Z,94.88
2023-04-06T00:26:43.013Z,95.20
2023-04-06T00:27:42.977Z,95.09
2023-04-06T00:28:42.974Z,94.78
2023-04-06T00:29:42.959Z,95.20
2023-04-06T00:30:43.093Z,94.88
2023-04-06T00:31:42.976Z,94.98
2023-04-06T00:32:42.998Z,95.09
2023-04-06T00:33:42.980Z,94.67
2023-04-06T00:34:42.918Z,94.98
2023-04-06T00:35:42.968Z,95.20
2023-04-06T00:36:44.040Z,94.98
2023-04-06T00:37:42.906Z,94.78
2023-04-06T00:38:42.890Z,95.40
2023-04-06T00:39:42.873Z,95.51
2023-04-06T00:40:42.857Z,95.55
2023-04-06T00:41:42.878Z,95.24
2023-04-06T00:42:42.861Z,95.72
2023-04-06T00:43:42.891Z,95.83
2023-04-06T00:44:42.848Z,95.72
2023-04-06T00:45:42.866Z,95.76
2023-04-06T00:46:42.839Z,95.30
2023-04-06T00:47:42.859Z,95.87
2023-04-06T00:48:42.826Z,95.34
2023-04-06T00:49:42.826Z,95.76
2023-04-06T00:50:42.806Z,95.83
2023-04-06T00:51:42.790Z,96.08
2023-04-06T00:52:43.385Z,96.08
2023-04-06T00:53:42.787Z,95.97
2023-04-06T00:54:42.809Z,95.97
2023-04-06T00:55:42.775Z,95.97
2023-04-06T00:56:42.752Z,95.97
2023-04-06T00:57:42.780Z,95.87
2023-04-06T00:58:42.778Z,95.97
2023-04-06T00:59:42.808Z,96.29
2023-04-06T01:00:43.723Z,96.19
2023-04-06T01:01:42.821Z,96.50
2023-04-06T01:02:42.771Z,95.87
2023-04-06T01:03:42.712Z,96.08
2023-04-06T01:04:42.766Z,96.08
2023-04-06T01:05:42.744Z,95.87
2023-04-06T01:06:42.689Z,95.91
2023-04-06T01:07:42.685Z,96.29
2023-04-06T01:08:42.685Z,96.23
2023-04-06T01:09:42.672Z,96.39
2023-04-06T01:10:42.768Z,96.61
2023-04-06T01:11:42.676Z,96.92
2023-04-06T01:12:42.638Z,96.19
2023-04-06T01:13:42.619Z,96.97
2023-04-06T01:14:42.626Z,96.29
2023-04-06T01:15:43.506Z,96.92
2023-04-06T01:16:42.667Z,96.23
2023-04-06T01:17:42.643Z,96.02
2023-04-06T01:18:42.619Z,95.60
2023-04-06T01:19:42.590Z,95.81
2023-04-06T01:20:43.390Z,96.02
2023-04-06T01:21:42.596Z,96.44
2023-04-06T01:22:42.582Z,96.75
2023-04-06T01:23:42.598Z,96.75
2023-04-06T01:24:42.550Z,96.55
2023-04-06T01:25:42.536Z,96.65
2023-04-06T01:26:42.532Z,96.75
2023-04-06T01:27:42.610Z,96.75
2023-04-06T01:28:42.526Z,96.81
2023-04-06T01:29:42.671Z,96.86
2023-04-06T01:30:42.489Z,96.86
2023-04-06T01:31:42.537Z,96.97
2023-04-06T01:32:42.617Z,96.86
2023-04-06T01:33:42.526Z,96.23
2023-04-06T01:34:42.489Z,96.27
2023-04-06T01:35:42.552Z,96.17
2023-04-06T01:36:42.486Z,96.37
2023-04-06T01:37:42.603Z,96.23
2023-04-06T01:38:43.352Z,96.06
2023-04-06T01:39:43.439Z,96.06
2023-04-06T01:40:42.435Z,96.06
2023-04-06T01:41:42.441Z,95.91
2023-04-06T01:42:42.418Z,96.27
2023-04-06T01:43:42.496Z,96.12
2023-04-06T01:44:42.446Z,96.06
2023-04-06T01:45:42.397Z,96.17
2023-04-06T01:46:42.455Z,96.80
2023-04-06T01:47:42.466Z,96.55
2023-04-06T01:48:42.359Z,96.86
2023-04-06T01:49:42.362Z,97.53
2023-04-06T01:50:42.364Z,97.60
2023-04-06T01:51:42.372Z,97.71
2023-04-06T01:52:42.384Z,96.97
2023-04-06T01:53:42.381Z,96.65
2023-04-06T01:54:43.326Z,96.86
2023-04-06T01:55:42.878Z,96.86
2023-04-06T01:56:42.308Z,97.22
2023-04-06T01:57:42.309Z,96.37
2023-04-06T01:58:42.329Z,96.80
2023-04-06T01:59:42.415Z,96.91
2023-04-06T02:00:43.024Z,96.80
2023-04-06T02:01:42.418Z,96.80
2023-04-06T02:02:42.345Z,97.11
2023-04-06T02:03:42.257Z,97.11
2023-04-06T02:04:42.296Z,97.22
2023-04-06T02:05:42.375Z,97.64
2023-04-06T02:06:42.242Z,97.39
2023-04-06T02:07:42.227Z,97.64
2023-04-06T02:08:42.211Z,97.53
2023-04-06T02:09:42.276Z,97.64
2023-04-06T02:10:42.224Z,97.22
2023-04-06T02:11:42.954Z,97.11
2023-04-06T02:12:42.211Z,97.33
2023-04-06T02:13:42.173Z,97.60
2023-04-06T02:14:42.227Z,97.22
2023-04-06T02:15:42.194Z,97.33
2023-04-06T02:16:42.189Z,97.22
2023-04-06T02:17:42.188Z,97.53
2023-04-06T02:18:42.963Z,98.02
2023-04-06T02:19:42.173Z,98.23
2023-04-06T02:20:42.216Z,97.96
2023-04-06T02:21:42.140Z,98.07
2023-04-06T02:22:42.114Z,98.33
2023-04-06T02:23:42.172Z,98.23
2023-04-06T02:24:42.103Z,98.44
2023-04-06T02:25:42.154Z,98.02
2023-04-06T02:26:42.172Z,97.81
2023-04-06T02:27:42.069Z,98.02
2023-04-06T02:28:42.135Z,97.85
2023-04-06T02:29:42.067Z,97.53
2023-04-06T02:30:42.053Z,98.17
2023-04-06T02:31:42.137Z,98.07
2023-04-06T02:32:42.094Z,98.27
2023-04-06T02:33:42.218Z,97.64
2023-04-06T02:34:42.064Z,98.17
2023-04-06T02:35:42.036Z,97.64
2023-04-06T02:36:42.079Z,98.17
2023-04-06T02:37:42.054Z,98.17
2023-04-06T02:38:41.996Z,98.07
2023-04-06T02:39:42.947Z,97.33
2023-04-06T02:40:42.986Z,97.69
2023-04-06T02:41:41.975Z,97.89
2023-04-06T02:42:41.955Z,97.16
2023-04-06T02:43:41.979Z,97.47
2023-04-06T02:44:42.888Z,97.47
2023-04-06T02:45:41.983Z,97.58
2023-04-06T02:46:42.058Z,97.89
2023-04-06T02:47:41.968Z,97.79
2023-04-06T02:48:41.932Z,98.25
2023-04-06T02:49:41.915Z,98.15
2023-04-06T02:50:41.901Z,98.00
2023-04-06T02:51:41.973Z,97.58
2023-04-06T02:52:41.935Z,97.41
2023-04-06T02:53:41.886Z,97.41
2023-04-06T02:54:41.897Z,97.52
2023-04-06T02:55:41.895Z,97.94
2023-04-06T02:56:41.853Z,98.15
2023-04-06T02:57:42.017Z,98.05
2023-04-06T02:58:41.860Z,98.47
2023-04-06T02:59:41.893Z,97.83
2023-04-06T03:00:41.830Z,97.83
2023-04-06T03:01:42.459Z,98.47
2023-04-06T03:02:41.907Z,98.47
2023-04-06T03:03:41.992Z,98.15
2023-04-06T03:04:41.816Z,98.47
2023-04-06T03:05:41.809Z,98.36
2023-04-06T03:06:41.794Z,98.36
2023-04-06T03:07:42.464Z,97.94
2023-04-06T03:08:41.776Z,98.47
2023-04-06T03:09:41.857Z,98.15
2023-04-06T03:10:41.796Z,98.05
2023-04-06T03:11:41.776Z,99.10
2023-04-06T03:12:42.861Z,99.69
2023-04-06T03:13:42.767Z,99.22
2023-04-06T03:14:41.839Z,98.95
2023-04-06T03:15:41.839Z,97.89
2023-04-06T03:16:41.745Z,98.15
2023-04-06T03:17:41.734Z,98.21
2023-04-06T03:18:41.696Z,98.25
2023-04-06T03:19:41.696Z,98.25
2023-04-06T03:20:41.735Z,98.11
2023-04-06T03:21:41.687Z,98.36
2023-04-06T03:22:41.673Z,98.21
2023-04-06T03:23:41.655Z,98.68
2023-04-06T03:24:42.506Z,98.05
2023-04-06T03:25:41.690Z,97.52
2023-04-06T03:26:41.646Z,97.63
2023-04-06T03:27:41.624Z,97.35
2023-04-06T03:28:41.645Z,97.52
2023-04-06T03:29:42.295Z,97.56
2023-04-06T03:30:41.604Z,97.20
2023-04-06T03:31:41.724Z,97.88
2023-04-06T03:32:41.631Z,98.15
2023-04-06T03:33:41.584Z,98.05
2023-04-06T03:34:41.561Z,98.93
2023-04-06T03:35:42.540Z,97.94
2023-04-06T03:36:42.049Z,98.19
2023-04-06T03:37:41.555Z,98.25
2023-04-06T03:39:14.399Z,98.15
2023-04-06T03:39:41.542Z,98.89
2023-04-06T03:40:41.635Z,99.31
2023-04-06T03:41:42.058Z,98.36
2023-04-06T03:42:41.793Z,98.36
2023-04-06T03:43:41.510Z,98.41
2023-04-06T03:44:41.551Z,97.88
2023-04-06T03:45:41.693Z,98.72
2023-04-06T03:46:41.561Z,98.51
2023-04-06T04:02:53.409Z,99.99
2023-04-06T04:03:53.471Z,99.88
2023-04-06T04:04:53.317Z,99.78
2023-04-06T04:05:54.422Z,99.35
2023-04-06T04:06:54.491Z,99.67
2023-04-06T04:07:54.431Z,99.99
2023-04-06T04:08:54.362Z,99.41
2023-04-06T04:09:54.385Z,99.88
2023-04-06T04:10:55.011Z,99.25
2023-04-06T04:11:54.326Z,99.35
2023-04-06T04:12:54.304Z,99.04
2023-04-06T04:13:54.417Z,99.10
2023-04-06T04:14:54.317Z,99.15
2023-04-06T04:15:55.454Z,99.15
2023-04-06T04:16:54.421Z,99.04
2023-04-06T04:17:54.339Z,99.25
2023-04-06T04:18:54.271Z,99.25
2023-04-06T04:19:54.467Z,98.51
2023-04-06T04:20:55.000Z,98.41
2023-04-06T04:21:54.306Z,98.30
2023-04-06T04:22:54.312Z,98.55
2023-04-06T04:23:54.393Z,98.45
2023-04-06T04:24:54.224Z,98.66
2023-04-06T04:25:54.403Z,98.45
2023-04-06T04:26:54.237Z,98.45
2023-04-06T04:27:54.217Z,98.66
2023-04-06T04:28:54.252Z,98.45
2023-04-06T04:29:54.258Z,98.55
2023-04-06T04:30:54.538Z,98.35
2023-04-06T04:31:54.298Z,98.71
2023-04-06T04:32:54.219Z,98.49
2023-04-06T04:33:54.184Z,98.49
2023-04-06T04:34:54.163Z,98.60
2023-04-06T04:35:54.222Z,98.49
2023-04-06T04:36:54.207Z,98.60
2023-04-06T04:37:54.144Z,98.81
2023-04-06T04:38:54.995Z,98.60
2023-04-06T04:39:54.151Z,98.60
2023-04-06T04:40:54.109Z,98.45
2023-04-06T04:41:54.161Z,99.40
2023-04-06T04:42:54.174Z,98.87
2023-04-06T04:43:54.853Z,99.13
2023-04-06T04:44:54.094Z,98.87
2023-04-06T04:45:54.128Z,99.30
2023-04-06T04:46:54.142Z,99.19
2023-04-06T04:47:54.234Z,98.98
2023-04-06T04:48:54.218Z,99.35
2023-04-06T04:49:54.074Z,98.55
2023-04-06T04:50:54.066Z,98.45
2023-04-06T04:51:54.041Z,98.55
2023-04-06T04:52:55.154Z,98.35
2023-04-06T04:53:54.283Z,98.35
2023-04-06T04:54:54.082Z,98.24
2023-04-06T04:55:54.104Z,98.45
2023-04-06T04:56:54.055Z,98.35
2023-04-06T04:57:54.101Z,98.13
2023-04-06T04:58:54.134Z,97.92
2023-04-06T04:59:54.913Z,97.65
2023-04-06T05:00:54.889Z,98.07
2023-04-06T05:01:55.262Z,97.86
2023-04-06T05:02:55.048Z,98.39
2023-04-06T05:03:54.082Z,98.13
2023-04-06T05:04:53.980Z,98.24
2023-04-06T05:05:53.958Z,97.97
2023-04-06T05:06:54.026Z,98.18
2023-04-06T05:07:53.964Z,98.66
2023-04-06T05:08:53.945Z,98.35
2023-04-06T05:09:53.936Z,98.35
2023-04-06T05:10:54.449Z,98.03
2023-04-06T05:11:54.852Z,97.92
2023-04-06T05:12:53.905Z,98.03
2023-04-06T05:13:53.920Z,98.30
2023-04-06T05:14:53.912Z,97.92
2023-04-06T05:15:54.099Z,98.24
2023-04-06T05:16:53.884Z,98.35
2023-04-06T05:17:53.992Z,98.61
2023-04-06T05:18:53.890Z,98.51
2023-04-06T05:19:53.881Z,98.36
2023-04-06T05:20:53.874Z,98.05
2023-04-06T05:21:54.464Z,98.19
2023-04-06T05:22:53.848Z,97.20
2023-04-06T05:23:53.829Z,97.63
2023-04-06T05:24:53.827Z,97.73
2023-04-06T05:25:53.861Z,97.37
2023-04-06T05:26:54.784Z,97.33
2023-04-06T05:27:53.813Z,96.88
2023-04-06T05:28:53.799Z,96.58
2023-04-06T05:29:55.038Z,95.82
2023-04-06T05:30:53.862Z,95.84
2023-04-06T05:31:53.788Z,96.12
2023-04-06T05:32:53.821Z,95.57
2023-04-06T05:33:53.780Z,96.70
2023-04-06T05:34:53.757Z,95.36
2023-04-06T05:35:53.816Z,95.75
2023-04-06T05:36:53.742Z,94.45
2023-04-06T05:37:53.761Z,90.39
2023-04-06T05:38:54.440Z,89.43
2023-04-06T05:39:54.806Z,86.52
2023-04-06T05:40:53.857Z,85.41
2023-04-06T05:41:53.725Z,84.08
2023-04-06T05:42:53.683Z,81.66
2023-04-06T05:43:53.750Z,79.44
2023-04-06T05:44:53.708Z,78.37
2023-04-06T05:45:53.637Z,78.23
2023-04-06T05:46:53.839Z,79.23
2023-04-06T05:47:53.741Z,75.57
2023-04-06T05:48:53.623Z,76.64
2023-04-06T05:49:54.628Z,73.91
2023-04-06T05:50:53.645Z,70.71
2023-04-06T05:51:53.668Z,70.67
2023-04-06T05:52:53.640Z,68.78
2023-04-06T05:53:53.699Z,67.54
2023-04-06T05:54:54.779Z,66.89
2023-04-06T05:55:53.650Z,65.97
2023-04-06T05:56:53.583Z,66.00
2023-04-06T05:57:53.679Z,66.07
2023-04-06T05:58:53.607Z,65.66
2023-04-06T05:59:53.580Z,65.83
2023-04-06T06:00:55.328Z,65.98
2023-04-06T06:01:53.570Z,63.65
2023-04-06T06:02:53.641Z,63.13
2023-04-06T06:03:53.509Z,62.31
2023-04-06T06:04:53.571Z,62.72
2023-04-06T06:05:53.511Z,63.22
2023-04-06T06:06:54.460Z,64.87
2023-04-06T06:07:53.534Z,64.49
2023-04-06T06:08:53.507Z,65.31
2023-04-06T06:09:53.514Z,64.62
2023-04-06T06:10:53.469Z,65.55
2023-04-06T06:11:54.518Z,65.27
2023-04-06T06:12:53.511Z,66.16
2023-04-06T06:13:53.486Z,67.19
2023-04-06T06:14:53.541Z,66.69
2023-04-06T06:15:53.459Z,65.52
2023-04-06T06:16:54.793Z,64.42
2023-04-06T06:17:53.991Z,66.10
2023-04-06T06:18:53.431Z,66.03
2023-04-06T06:19:53.474Z,66.57
2023-04-06T06:20:53.501Z,66.36
2023-04-06T06:21:53.471Z,68.08
2023-04-06T06:22:54.286Z,68.53
2023-04-06T06:23:53.438Z,69.39
2023-04-06T06:24:53.428Z,69.29
2023-04-06T06:25:53.413Z,69.64
2023-04-06T06:26:53.359Z,68.19
2023-04-06T06:27:53.337Z,68.77
2023-04-06T06:28:53.343Z,67.30
2023-04-06T06:29:53.424Z,66.20
2023-04-06T06:30:53.463Z,66.41
2023-04-06T06:31:53.380Z,66.03
2023-04-06T06:32:53.562Z,66.20
2023-04-06T06:33:53.348Z,66.25
2023-04-06T06:34:53.279Z,63.24
2023-04-06T06:35:53.379Z,64.15
2023-04-06T06:36:53.321Z,65.00
2023-04-06T06:37:53.369Z,64.80
2023-04-06T06:38:53.249Z,66.04
2023-04-06T06:39:53.299Z,65.21
2023-04-06T06:40:53.284Z,65.92
2023-04-06T06:41:53.274Z,66.13
2023-04-06T06:42:53.249Z,67.40
2023-04-06T06:43:53.325Z,67.78
2023-04-06T06:44:53.255Z,67.30
2023-04-06T06:45:53.742Z,66.31
2023-04-06T06:46:53.199Z,65.05
2023-04-06T06:47:55.296Z,64.46
2023-04-06T06:48:54.252Z,64.53
2023-04-06T06:49:53.164Z,64.43
2023-04-06T06:50:53.662Z,65.50
2023-04-06T06:51:53.236Z,62.97
2023-04-06T06:52:53.215Z,63.65
2023-04-06T06:53:53.151Z,64.87
2023-04-06T06:54:54.387Z,64.86
2023-04-06T06:55:53.128Z,63.46
2023-04-06T06:56:53.110Z,62.24
2023-04-06T06:57:53.155Z,61.33
2023-04-06T06:58:53.202Z,63.47
2023-04-06T06:59:53.182Z,65.05
2023-04-06T07:00:53.138Z,65.94
2023-04-06T07:01:53.087Z,65.12
2023-04-06T07:02:53.208Z,64.65
2023-04-06T07:03:54.134Z,63.78
2023-04-06T07:04:53.136Z,63.93
2023-04-06T07:05:53.043Z,63.85
2023-04-06T07:06:53.050Z,64.61
2023-04-06T07:07:53.230Z,65.36
2023-04-06T07:08:54.037Z,65.77
2023-04-06T07:09:53.020Z,65.20
2023-04-06T07:10:53.945Z,62.34
2023-04-06T07:11:53.003Z,61.40
2023-04-06T07:12:53.009Z,63.45
2023-04-06T07:13:54.003Z,65.25
2023-04-06T07:14:53.014Z,65.53
2023-04-06T07:15:52.979Z,65.53
2023-04-06T07:16:52.998Z,64.71
2023-04-06T07:17:53.022Z,64.50
2023-04-06T07:18:52.979Z,65.09
2023-04-06T07:19:52.992Z,64.47
2023-04-06T07:20:52.938Z,62.84
2023-04-06T07:21:53.136Z,62.51
2023-04-06T07:22:52.924Z,61.21
2023-04-06T07:23:52.913Z,60.17
2023-04-06T07:24:52.919Z,58.03
2023-04-06T07:25:52.906Z,58.97
2023-04-06T07:26:53.470Z,58.69
2023-04-06T07:27:52.870Z,60.66
2023-04-06T07:28:53.002Z,58.98
2023-04-06T07:29:52.898Z,55.56
2023-04-06T07:30:54.494Z,54.59
2023-04-06T07:31:52.977Z,54.97
2023-04-06T07:32:52.902Z,55.51
2023-04-06T07:33:52.821Z,56.64
2023-04-06T07:34:52.870Z,57.59
2023-04-06T07:35:52.912Z,59.11
2023-04-06T07:36:52.798Z,60.47
2023-04-06T07:37:52.818Z,61.11
2023-04-06T07:38:52.817Z,64.17
2023-04-06T07:39:52.818Z,65.43
2023-04-06T07:40:52.839Z,66.05
2023-04-06T07:41:52.899Z,65.67
2023-04-06T07:42:52.817Z,66.18
2023-04-06T07:43:52.779Z,66.02
2023-04-06T07:44:52.802Z,64.86
2023-04-06T07:45:52.858Z,63.43
2023-04-06T07:46:52.764Z,63.35
2023-04-06T07:47:52.814Z,63.20
2023-04-06T07:48:52.850Z,62.23
2023-04-06T07:49:52.694Z,60.03
2023-04-06T07:50:52.718Z,57.97
2023-04-06T07:51:52.750Z,60.35
2023-04-06T07:52:52.712Z,59.27
2023-04-06T07:53:52.689Z,57.02
2023-04-06T07:54:53.484Z,55.30
2023-04-06T07:55:52.731Z,54.44
2023-04-06T07:56:52.678Z,53.98
2023-04-06T07:57:53.831Z,55.33
2023-04-06T07:58:54.364Z,55.69
2023-04-06T08:00:27.526Z,54.85
2023-04-06T08:00:52.628Z,52.37
2023-04-06T08:01:53.766Z,54.74
2023-04-06T08:02:52.713Z,55.18
2023-04-06T08:03:53.505Z,54.46
2023-04-06T08:04:53.525Z,55.36
2023-04-06T08:05:52.657Z,53.98
2023-04-06T08:06:52.584Z,53.72
2023-04-06T08:07:52.655Z,55.51
2023-04-06T08:08:54.262Z,55.43
2023-04-06T08:09:53.460Z,57.02
2023-04-06T08:10:52.601Z,58.97
2023-04-06T08:11:52.637Z,59.50
2023-04-06T08:12:52.627Z,58.84
2023-04-06T08:13:52.564Z,57.32
2023-04-06T08:14:52.589Z,56.30
2023-04-06T08:15:52.598Z,55.69
2023-04-06T08:16:52.600Z,54.61
2023-04-06T08:17:52.564Z,52.68
2023-04-06T08:18:52.516Z,51.92
2023-04-06T08:19:52.519Z,50.65
2023-04-06T08:20:52.584Z,50.53
2023-04-06T08:21:52.502Z,48.83
2023-04-06T08:22:53.772Z,47.07
2023-04-06T08:23:53.460Z,45.67
2023-04-06T08:24:52.500Z,46.14
2023-04-06T08:25:52.433Z,45.33
2023-04-06T08:26:53.168Z,45.86
2023-04-06T08:27:52.481Z,46.20
2023-04-06T08:28:52.459Z,46.62
2023-04-06T08:29:53.890Z,49.05
2023-04-06T08:30:52.493Z,49.21
2023-04-06T08:31:52.438Z,48.03
2023-04-06T08:32:53.116Z,46.38
2023-04-06T08:33:52.422Z,47.19
2023-04-06T08:34:52.411Z,46.16
2023-04-06T08:35:52.446Z,45.81
2023-04-06T08:36:52.372Z,44.13
2023-04-06T08:37:52.429Z,42.98
2023-04-06T08:38:53.397Z,43.10
2023-04-06T08:39:52.390Z,43.55
2023-04-06T08:40:52.386Z,44.42
2023-04-06T08:41:52.325Z,46.04
2023-04-06T08:42:52.374Z,48.41
2023-04-06T08:43:52.350Z,49.20
2023-04-06T08:44:52.566Z,49.23
2023-04-06T08:45:52.363Z,46.79
2023-04-06T08:46:52.427Z,46.48
2023-04-06T08:47:52.335Z,45.71
2023-04-06T08:48:52.268Z,45.25
2023-04-06T08:50:24.978Z,43.71
2023-04-06T08:50:53.147Z,43.40
2023-04-06T08:52:26.033Z,43.91
2023-04-06T08:53:26.609Z,43.93
2023-04-06T08:53:52.211Z,43.55
2023-04-06T08:54:52.684Z,43.63
2023-04-06T08:55:52.771Z,43.20
2023-04-06T08:56:53.628Z,42.76
2023-04-06T08:57:52.230Z,42.70
2023-04-06T08:58:54.540Z,44.54
2023-04-06T08:59:53.719Z,46.91
2023-04-06T09:00:53.177Z,45.57
2023-04-06T09:01:52.313Z,45.73
2023-04-06T09:02:52.256Z,45.72
2023-04-06T09:03:53.159Z,47.06
2023-04-06T09:04:53.227Z,46.64
2023-04-06T09:05:53.999Z,45.10
2023-04-06T09:06:52.166Z,46.22
2023-04-06T09:07:52.672Z,45.26
2023-04-06T09:08:53.047Z,44.07
2023-04-06T09:09:52.159Z,43.14
2023-04-06T09:10:52.971Z,43.44
2023-04-06T09:11:53.473Z,46.63
2023-04-06T09:12:55.053Z,45.98
2023-04-06T09:13:52.245Z,44.27
2023-04-06T09:14:52.089Z,43.20
2023-04-06T09:15:52.110Z,41.83
2023-04-06T09:16:54.556Z,41.85
2023-04-06T09:18:52.767Z,42.46
2023-04-06T09:19:52.061Z,42.49
2023-04-06T09:20:52.957Z,43.46
2023-04-06T09:21:52.059Z,44.20
2023-04-06T09:22:52.738Z,43.85
2023-04-06T09:23:53.023Z,43.28
2023-04-06T09:24:52.716Z,41.63
2023-04-06T09:25:52.092Z,41.33
2023-04-06T09:26:51.949Z,40.70
2023-04-06T09:27:53.464Z,43.24
2023-04-06T09:28:52.674Z,43.93
2023-04-06T09:29:52.001Z,42.58
2023-04-06T09:30:51.950Z,43.98
2023-04-06T09:31:51.963Z,45.21
2023-04-06T09:32:52.045Z,45.50
2023-04-06T09:33:55.484Z,45.75
2023-04-06T09:34:52.934Z,44.01
2023-04-06T09:35:52.698Z,42.01
2023-04-06T09:36:51.975Z,40.95
2023-04-06T09:37:52.895Z,41.89
2023-04-06T09:39:23.826Z,41.02
2023-04-06T09:39:53.590Z,40.30
2023-04-06T09:41:00.681Z,40.20
2023-04-06T09:41:53.857Z,40.12
2023-04-06T09:42:51.826Z,40.46
2023-04-06T09:43:51.847Z,39.94
2023-04-06T09:44:51.855Z,39.63
2023-04-06T09:45:51.875Z,40.19
2023-04-06T09:47:00.280Z,40.58
2023-04-06T09:47:53.930Z,40.05
2023-04-06T09:48:51.786Z,39.95
2023-04-06T09:49:51.824Z,40.44
2023-04-06T09:50:51.812Z,40.86
2023-04-06T09:51:52.726Z,39.04
2023-04-06T09:52:51.847Z,38.86
2023-04-06T09:53:51.744Z,38.49
2023-04-06T09:54:51.750Z,40.15
2023-04-06T09:55:52.606Z,40.17
2023-04-06T09:56:51.798Z,42.21
2023-04-06T09:57:51.703Z,40.80
2023-04-06T09:58:51.690Z,41.89
2023-04-06T09:59:51.865Z,40.80
2023-04-06T10:00:54.295Z,41.16
2023-04-06T10:01:52.701Z,41.74
2023-04-06T10:02:51.878Z,41.50
2023-04-06T10:03:51.721Z,41.07
2023-04-06T10:04:51.640Z,41.91
2023-04-06T10:05:51.686Z,42.78
2023-04-06T10:06:52.604Z,42.25
2023-04-06T10:08:53.626Z,41.52
2023-04-06T10:09:51.620Z,42.37
2023-04-06T10:10:51.634Z,41.83
2023-04-06T10:11:51.607Z,41.91
2023-04-06T10:12:51.674Z,40.29
2023-04-06T10:13:51.621Z,41.99
2023-04-06T10:14:51.563Z,40.26
2023-04-06T10:15:51.606Z,43.16
2023-04-06T10:16:51.635Z,43.10
2023-04-06T10:17:51.656Z,42.19
2023-04-06T10:18:51.553Z,41.78
2023-04-06T10:19:51.657Z,42.78
2023-04-06T10:20:51.591Z,42.74
2023-04-06T10:21:51.532Z,40.29
2023-04-06T10:22:52.538Z,40.59
2023-04-06T10:23:51.620Z,40.69
2023-04-06T10:24:51.517Z,40.47
2023-04-06T10:25:51.517Z,41.30
2023-04-06T10:26:51.512Z,41.63
2023-04-06T10:27:51.539Z,41.05
2023-04-06T10:28:51.508Z,40.38
2023-04-06T10:29:51.510Z,41.50
2023-04-06T10:30:51.443Z,41.48
2023-04-06T10:31:51.500Z,41.70
2023-04-06T10:32:51.557Z,42.49
2023-04-06T10:33:51.448Z,42.07
2023-04-06T10:34:52.106Z,41.38
2023-04-06T10:35:51.483Z,41.50
2023-04-06T10:36:51.443Z,41.09
2023-04-06T10:37:51.460Z,40.77
2023-04-06T10:38:51.418Z,41.66
2023-04-06T10:39:51.416Z,40.95
2023-04-06T10:40:51.408Z,42.00
2023-04-06T10:41:52.127Z,43.77
2023-04-06T10:42:51.417Z,42.11
2023-04-06T10:43:51.420Z,41.82
2023-04-06T10:44:52.196Z,41.99
2023-04-06T10:45:51.389Z,40.61
2023-04-06T10:46:51.354Z,41.99
2023-04-06T10:47:51.376Z,41.84
2023-04-06T10:48:51.362Z,41.93
2023-04-06T10:49:51.347Z,42.31
2023-04-06T10:50:51.297Z,42.00
2023-04-06T10:51:51.436Z,43.18
2023-04-06T10:52:51.297Z,43.08
2023-04-06T10:53:51.360Z,43.16
2023-04-06T10:54:51.277Z,42.29
2023-04-06T10:55:51.313Z,42.78
2023-04-06T10:56:51.307Z,42.41
2023-04-06T10:57:51.317Z,43.37
2023-04-06T10:58:51.358Z,44.67
2023-04-06T10:59:51.334Z,43.51
2023-04-06T11:00:51.667Z,42.60
2023-04-06T11:01:51.322Z,44.95
2023-04-06T11:02:52.025Z,44.34
2023-04-06T11:03:51.289Z,43.32
2023-04-06T11:04:52.181Z,43.79
2023-04-06T11:05:51.255Z,44.85
2023-04-06T11:06:51.312Z,45.48
2023-04-06T11:07:51.217Z,46.22
2023-04-06T11:08:51.300Z,45.07
2023-04-06T11:10:04.573Z,44.40
2023-04-06T11:10:53.215Z,43.59
2023-04-06T11:11:51.171Z,45.50
2023-04-06T11:12:51.159Z,44.65
2023-04-06T11:13:51.183Z,43.41
2023-04-06T11:14:51.738Z,42.49
2023-04-06T11:15:51.754Z,42.90
2023-04-06T11:16:51.352Z,43.12
2023-04-06T11:17:51.168Z,43.84
2023-04-06T11:18:51.108Z,44.32
2023-04-06T11:19:52.024Z,42.29
2023-04-06T11:20:51.100Z,43.67
2023-04-06T11:21:51.123Z,44.36
2023-04-06T11:22:51.104Z,45.26
2023-04-06T11:23:51.060Z,45.72
2023-04-06T11:24:51.059Z,44.46
2023-04-06T11:25:51.707Z,43.73
2023-04-06T11:26:51.046Z,45.31
2023-04-06T11:27:51.036Z,44.46
2023-04-06T11:28:51.019Z,44.38
2023-04-06T11:29:51.028Z,45.37
2023-04-06T11:30:51.165Z,44.20
2023-04-06T11:31:51.011Z,44.82
2023-04-06T11:32:51.122Z,44.95
2023-04-06T11:33:51.010Z,44.30
2023-04-06T11:34:50.981Z,43.29
2023-04-06T11:35:51.327Z,43.91
2023-04-06T11:36:50.980Z,45.01
2023-04-06T11:37:50.999Z,43.89
2023-04-06T11:38:50.973Z,44.13
2023-04-06T11:39:50.928Z,45.56
2023-04-06T11:40:50.932Z,43.81
2023-04-06T11:41:51.021Z,44.85
2023-04-06T11:42:50.966Z,43.63
2023-04-06T11:43:50.958Z,44.04
2023-04-06T11:44:50.952Z,44.59
2023-04-06T11:45:50.900Z,45.01
2023-04-06T11:46:51.191Z,45.01
2023-04-06T11:47:51.627Z,45.40
2023-04-06T11:48:50.908Z,45.46
2023-04-06T11:49:50.899Z,46.14
2023-04-06T11:50:50.856Z,45.33
2023-04-06T11:51:50.889Z,44.62
2023-04-06T11:52:50.853Z,43.49
2023-04-06T11:53:51.719Z,43.98
2023-04-06T11:54:50.851Z,43.59
2023-04-06T11:55:50.874Z,43.44
2023-04-06T11:56:51.829Z,44.62
2023-04-06T11:57:50.818Z,45.37
2023-04-06T11:58:50.895Z,45.83
2023-04-06T11:59:50.833Z,46.66
2023-04-06T12:00:50.887Z,46.44
2023-04-06T12:01:50.838Z,46.64
2023-04-06T12:02:50.860Z,46.23
2023-04-06T12:03:50.906Z,45.40
2023-04-06T12:04:50.784Z,46.17
2023-04-06T12:05:51.146Z,45.31
2023-04-06T12:06:50.815Z,45.36
2023-04-06T12:07:50.765Z,45.17
2023-04-06T12:08:50.746Z,44.77
2023-04-06T12:09:50.707Z,45.25
2023-04-06T12:10:51.221Z,44.04
2023-04-06T12:11:50.798Z,45.05
2023-04-06T12:12:50.715Z,43.93
2023-04-06T12:13:50.715Z,43.55
2023-04-06T12:14:50.683Z,43.55
2023-04-06T12:15:51.542Z,43.47
2023-04-06T12:16:50.656Z,44.16
2023-04-06T12:17:50.698Z,44.74
2023-04-06T12:18:50.687Z,43.79
2023-04-06T12:19:50.664Z,43.79
2023-04-06T12:20:51.237Z,43.89
2023-04-06T12:21:50.670Z,43.59
2023-04-06T12:22:50.608Z,44.40
2023-04-06T12:23:50.644Z,44.13
2023-04-06T12:24:50.612Z,44.54
2023-04-06T12:25:50.632Z,44.77
2023-04-06T12:26:54.077Z,44.48
2023-04-06T12:27:51.637Z,45.42
2023-04-06T12:28:51.609Z,45.64
2023-04-06T12:29:50.652Z,45.90
2023-04-06T12:30:50.573Z,44.67
2023-04-06T12:31:50.802Z,45.23
2023-04-06T12:32:51.397Z,45.11
2023-04-06T12:33:51.697Z,43.51
2023-04-06T12:34:50.556Z,44.73
2023-04-06T12:35:50.544Z,43.84
2023-04-06T12:36:50.554Z,43.23
2023-04-06T12:37:50.517Z,43.73
2023-04-06T12:38:50.538Z,44.24
2023-04-06T12:39:50.495Z,44.52
2023-04-06T12:40:50.513Z,43.18
2023-04-06T12:41:50.527Z,42.37
2023-04-06T12:42:50.449Z,43.67
2023-04-06T12:43:51.059Z,42.74
2023-04-06T12:44:50.511Z,42.43
2023-04-06T12:45:51.520Z,43.06
2023-04-06T12:46:50.547Z,42.88
2023-04-06T12:47:50.462Z,43.41
2023-04-06T12:48:50.419Z,45.54
2023-04-06T12:49:50.413Z,44.48
2023-04-06T12:50:50.389Z,43.06
2023-04-06T12:51:50.413Z,43.57
2023-04-06T12:52:51.250Z,43.26
2023-04-06T12:53:50.404Z,43.26
2023-04-06T12:54:51.489Z,43.87
2023-04-06T12:55:50.399Z,44.15
2023-04-06T12:56:51.268Z,42.11
2023-04-06T12:57:50.375Z,42.09
2023-04-06T12:58:50.428Z,41.50
2023-04-06T12:59:50.394Z,42.61
2023-04-06T13:00:50.396Z,41.72
2023-04-06T13:01:51.705Z,43.02
2023-04-06T13:02:50.551Z,41.50
2023-04-06T13:03:50.333Z,41.71
2023-04-06T13:04:50.287Z,42.11
2023-04-06T13:05:50.298Z,43.02
2023-04-06T13:06:51.220Z,41.91
2023-04-06T13:07:50.291Z,41.60
2023-04-06T13:08:50.289Z,41.38
2023-04-06T13:09:50.281Z,41.46